Time;durP1;ratioP1;P1;durP2;ratioP2;P2;SDS_P1;SDS_P2;PMS_P1;PMS_P2;Temp;Humidity;BMP_temperature;BMP_pressure;BME280_temperature;BME280_humidity;BME280_pressure;Samples;Min_cycle;Max_cycle;Signal;HPM_P1;HPM_P2
2021/06/08 00:02:00;;;;;;;10.68;8.10;;;;;;;21.58;100.00;101065.84;4905223;29;20048;-76
2021/06/08 00:04:46;;;;;;;9.88;8.38;;;;;;;21.42;100.00;101058.81;4905568;29;20024;-75
2021/06/08 00:07:32;;;;;;;11.15;8.27;;;;;;;21.50;100.00;101057.41;4919077;29;20063;-76
2021/06/08 00:10:18;;;;;;;9.95;8.35;;;;;;;21.35;100.00;101055.63;4919398;29;20051;-76
2021/06/08 00:13:04;;;;;;;9.60;8.23;;;;;;;21.55;100.00;101052.69;4919935;29;20390;-76
2021/06/08 00:15:50;;;;;;;9.95;8.27;;;;;;;21.52;100.00;101063.53;4905282;29;20029;-75
2021/06/08 00:18:35;;;;;;;9.48;8.52;;;;;;;21.60;100.00;101052.41;4919198;29;20471;-76
2021/06/08 00:21:22;;;;;;;8.55;7.75;;;;;;;21.56;100.00;101051.75;4918390;29;20036;-76
2021/06/08 00:24:07;;;;;;;9.20;8.30;;;;;;;21.34;100.00;101053.03;4918686;29;20139;-75
2021/06/08 00:26:53;;;;;;;10.30;8.13;;;;;;;21.14;100.00;101058.63;4918830;29;20129;-76
2021/06/08 00:29:39;;;;;;;10.07;8.23;;;;;;;21.16;100.00;101057.59;4919165;29;20118;-76
2021/06/08 00:32:25;;;;;;;8.93;7.93;;;;;;;21.11;100.00;101057.00;4918581;29;20036;-76
2021/06/08 00:35:11;;;;;;;10.02;8.98;;;;;;;21.25;100.00;101056.19;4917907;29;20111;-76
2021/06/08 00:37:57;;;;;;;9.60;8.70;;;;;;;21.17;100.00;101051.31;4918580;29;20449;-76
2021/06/08 00:40:44;;;;;;;9.95;8.77;;;;;;;20.88;100.00;101049.38;4906619;29;20040;-76
2021/06/08 00:43:30;;;;;;;9.65;8.65;;;;;;;20.72;100.00;101048.47;4918541;29;20039;-76
2021/06/08 00:46:16;;;;;;;9.13;8.23;;;;;;;20.72;100.00;101044.94;4905220;29;20028;-76
2021/06/08 00:49:02;;;;;;;9.57;8.68;;;;;;;20.88;100.00;101037.84;4917443;29;20046;-76
2021/06/08 00:51:48;;;;;;;9.55;8.55;;;;;;;20.77;100.00;101038.41;4918506;29;20036;-75
2021/06/08 00:54:34;;;;;;;9.52;8.52;;;;;;;20.79;100.00;101036.56;4919063;29;20377;-76
2021/06/08 00:57:20;;;;;;;10.05;8.60;;;;;;;20.54;100.00;101035.28;4917530;29;20032;-74
2021/06/08 01:00:08;;;;;;;9.48;8.57;;;;;;;20.47;100.00;101037.41;4918904;29;20040;-76
2021/06/08 01:02:53;;;;;;;9.55;8.65;;;;;;;20.72;100.00;101031.63;4904425;29;20031;-75
2021/06/08 01:05:39;;;;;;;9.02;8.18;;;;;;;21.00;100.00;101022.09;4904822;29;20032;-76
2021/06/08 01:08:25;;;;;;;10.05;8.95;;;;;;;20.27;100.00;101026.97;4903944;29;20024;-75
2021/06/08 01:11:11;;;;;;;10.25;9.02;;;;;;;20.53;100.00;101033.56;4917459;29;20036;-75
2021/06/08 01:14:00;;;;;;;12.68;10.05;;;;;;;20.59;100.00;101038.56;4905422;29;20111;-76
2021/06/08 01:16:45;;;;;;;10.55;9.45;;;;;;;20.54;100.00;101032.63;4918458;29;20032;-76
2021/06/08 01:19:34;;;;;;;11.02;9.68;;;;;;;20.62;100.00;101035.75;4918077;29;20032;-76
2021/06/08 01:22:19;;;;;;;10.88;9.63;;;;;;;20.43;100.00;101035.84;4917604;29;20032;-75
2021/06/08 03:07:20;;;;;;;14.70;11.48;;;;;;;19.13;100.00;101059.25;5991128;23;20022;31
2021/06/08 03:10:19;;;;;;;12.50;11.20;;;;;;;19.67;100.00;101055.75;4882186;29;20048;-76
2021/06/08 03:13:07;;;;;;;12.93;11.25;;;;;;;19.78;100.00;101058.75;4882739;29;20041;-76
2021/06/08 03:15:58;;;;;;;13.40;11.57;;;;;;;19.38;100.00;101065.16;4893650;29;20088;-75
2021/06/08 03:18:46;;;;;;;18.08;12.70;;;;;;;19.25;100.00;101065.81;4903600;29;20031;-75
2021/06/08 03:21:44;;;;;;;15.82;12.27;;;;;;;19.16;100.00;101067.06;4891979;29;20017;-76
2021/06/08 03:24:33;;;;;;;15.77;11.93;;;;;;;19.29;100.00;101068.22;4883711;29;20033;-76
2021/06/08 03:27:20;;;;;;;14.82;11.55;;;;;;;19.66;100.00;101068.22;4869943;29;20029;-76
2021/06/08 03:30:07;;;;;;;18.02;13.10;;;;;;;19.75;100.00;101073.06;4883258;29;20029;-76
2021/06/08 03:32:55;;;;;;;13.52;12.00;;;;;;;19.83;100.00;101076.22;4893533;29;20043;-75
2021/06/08 03:35:42;;;;;;;13.07;11.60;;;;;;;19.59;100.00;101080.06;4893475;29;20033;-75
2021/06/08 03:38:28;;;;;;;13.73;11.57;;;;;;;19.85;100.00;101084.94;4889958;29;20033;-76
2021/06/08 03:41:15;;;;;;;14.48;11.27;;;;;;;19.48;100.00;101095.66;4883756;29;20359;-75
2021/06/08 03:44:01;;;;;;;17.35;11.75;;;;;;;19.36;100.00;101092.75;4882222;29;20033;-76
2021/06/08 03:46:48;;;;;;;14.65;11.75;;;;;;;19.14;100.00;101101.66;4882155;29;20515;-75
2021/06/08 05:18:55;;;;;;;17.98;13.48;;;;;;;20.79;100.00;101143.09;4916660;29;20055;-76
2021/06/08 05:21:42;;;;;;;18.27;13.32;;;;;;;20.75;100.00;101146.84;4918314;29;20043;-76
2021/06/08 05:24:28;;;;;;;16.45;13.20;;;;;;;20.71;100.00;101145.28;4885691;29;20354;-76
2021/06/08 05:27:14;;;;;;;18.77;13.98;;;;;;;20.85;100.00;101147.25;4898100;29;20370;-76
2021/06/08 05:30:01;;;;;;;15.45;12.55;;;;;;;20.85;100.00;101150.75;4898542;29;20100;-77
2021/06/08 05:32:47;;;;;;;16.35;13.75;;;;;;;21.07;100.00;101145.16;4885922;29;20348;-76
2021/06/08 05:35:32;;;;;;;16.40;13.00;;;;;;;20.78;100.00;101144.00;4898354;29;20052;-76
2021/06/08 05:38:37;;;;;;;15.07;13.38;;;;;;;21.43;100.00;101152.03;4897919;29;20048;-77
2021/06/08 05:41:23;;;;;;;20.23;14.68;;;;;;;21.67;100.00;101152.47;4898181;29;20033;-75
2021/06/08 05:44:11;;;;;;;20.38;14.30;;;;;;;21.81;100.00;101152.56;4898206;29;20038;-77
2021/06/08 05:46:57;;;;;;;22.00;14.13;;;;;;;21.35;100.00;101148.94;4898756;29;20032;-77
2021/06/08 05:49:42;;;;;;;20.55;14.00;;;;;;;21.70;100.00;101142.50;4884798;29;20021;-76
2021/06/08 05:52:28;;;;;;;20.67;14.55;;;;;;;21.62;100.00;101150.03;4898512;29;20370;-75
2021/06/08 05:55:16;;;;;;;18.00;14.30;;;;;;;21.82;100.00;101147.16;4885115;29;20051;-76
2021/06/08 05:58:03;;;;;;;18.20;14.27;;;;;;;21.79;100.00;101152.66;4884966;29;20108;-76
2021/06/08 06:00:50;;;;;;;18.10;15.20;;;;;;;21.53;100.00;101155.91;4898290;29;20071;-76
2021/06/08 06:03:37;;;;;;;18.38;14.82;;;;;;;21.46;100.00;101153.66;4885712;29;20069;-76
2021/06/08 06:06:25;;;;;;;16.80;14.63;;;;;;;21.54;100.00;101154.94;4884872;29;20108;-75
2021/06/08 06:09:12;;;;;;;19.98;15.75;;;;;;;21.60;100.00;101159.97;4885149;29;20021;-75
2021/06/08 06:11:59;;;;;;;19.67;15.30;;;;;;;22.06;100.00;101152.91;4885738;29;20048;-76
2021/06/08 06:14:47;;;;;;;19.70;14.93;;;;;;;22.22;100.00;101149.25;4885163;29;20347;-76
2021/06/08 06:18:07;;;;;;;18.45;13.77;;;;;;;22.54;100.00;101152.72;4898400;29;20048;-75
2021/06/08 06:21:21;;;;;;;19.00;14.00;;;;;;;22.27;100.00;101144.50;4898831;29;20075;-77
2021/06/08 06:24:42;;;;;;;22.20;15.52;;;;;;;22.19;100.00;101146.75;4905142;29;20044;-77
2021/06/08 06:27:27;;;;;;;18.30;15.32;;;;;;;22.46;100.00;101145.16;4904470;29;20052;-76
2021/06/08 06:30:15;;;;;;;19.95;15.52;;;;;;;22.82;100.00;101142.06;4890918;29;20028;-75
2021/06/08 06:33:01;;;;;;;17.30;14.82;;;;;;;22.95;100.00;101141.22;4889075;29;20020;-75
2021/06/08 06:35:58;;;;;;;20.25;14.48;;;;;;;23.12;100.00;101138.38;4889686;29;20104;-75
2021/06/08 06:39:18;;;;;;;22.80;14.25;;;;;;;23.38;100.00;101138.59;4901254;29;20362;-75
2021/06/08 06:42:07;;;;;;;21.50;15.80;;;;;;;23.05;100.00;101136.19;4902255;29;20373;-76
2021/06/08 06:48:36;;;;;;;19.50;13.82;;;;;;;23.58;100.00;101128.31;4895835;29;20033;-77
2021/06/08 06:51:22;;;;;;;22.20;15.35;;;;;;;23.56;100.00;101132.06;4888893;29;20028;-75
2021/06/08 06:54:08;;;;;;;21.58;14.90;;;;;;;23.19;100.00;101129.00;4900629;29;20481;-76
2021/06/08 06:56:56;;;;;;;19.33;14.77;;;;;;;23.88;100.00;101122.81;4900978;29;20411;-75
2021/06/08 06:59:42;;;;;;;16.13;13.63;;;;;;;24.32;100.00;101124.28;4887737;29;20020;-76
2021/06/08 07:02:28;;;;;;;19.55;14.80;;;;;;;24.31;100.00;101124.38;4900568;29;20060;-77
2021/06/08 07:05:17;;;;;;;16.27;13.90;;;;;;;24.33;100.00;101120.63;4900378;29;20033;-76
2021/06/08 07:08:05;;;;;;;18.95;15.00;;;;;;;24.16;100.00;101115.56;4888061;29;20037;-76
2021/06/08 07:10:53;;;;;;;16.05;14.35;;;;;;;24.44;100.00;101111.84;4900713;29;20418;-76
2021/06/08 07:13:39;;;;;;;18.13;13.43;;;;;;;24.45;100.00;101119.78;4901705;29;20037;-76
2021/06/08 07:16:25;;;;;;;14.82;12.65;;;;;;;24.59;100.00;101118.84;4888989;29;20355;-76
2021/06/08 07:19:13;;;;;;;17.30;14.32;;;;;;;24.57;100.00;101110.91;4900412;29;20438;-76
2021/06/08 07:21:59;;;;;;;18.92;12.10;;;;;;;24.76;100.00;101110.53;4900499;29;20064;-76
2021/06/08 07:24:46;;;;;;;23.17;11.32;;;;;;;25.48;100.00;101110.69;4899918;29;20393;-76
2021/06/08 07:27:32;;;;;;;19.80;12.32;;;;;;;25.67;100.00;101114.59;4901133;29;20119;-76
2021/06/08 07:30:18;;;;;;;16.48;11.95;;;;;;;25.78;100.00;101111.97;4900071;29;20107;-76
2021/06/08 07:34:10;;;;;;;22.27;12.40;;;;;;;25.79;100.00;101118.19;4889104;29;20091;-76
2021/06/08 07:37:23;;;;;;;16.80;12.32;;;;;;;25.55;100.00;101120.03;4874275;29;20124;-77
2021/06/08 07:40:18;;;;;;;18.90;11.35;;;;;;;25.52;100.00;101122.91;4901997;29;20036;-77
2021/06/08 07:43:42;;;;;;;14.43;12.25;;;;;;;25.17;100.00;101124.56;4888454;29;20095;-77
2021/06/08 07:46:29;;;;;;;15.00;11.82;;;;;;;25.90;100.00;101112.88;4887226;29;20040;-77
2021/06/08 07:49:18;;;;;;;15.98;10.75;;;;;;;26.09;100.00;101122.19;4887916;29;20028;-76
2021/06/08 07:52:25;;;;;;;18.05;11.20;;;;;;;25.37;100.00;101126.69;4900052;29;20111;-77
2021/06/08 07:55:13;;;;;;;11.52;10.07;;;;;;;25.44;100.00;101134.19;4900156;29;20029;-75
2021/06/08 07:57:59;;;;;;;14.32;10.07;;;;;;;25.68;100.00;101127.03;4900857;29;20119;-77
2021/06/08 08:00:45;;;;;;;13.13;10.05;;;;;;;26.43;100.00;101120.47;4900389;29;20035;-77
2021/06/08 08:03:32;;;;;;;16.00;10.57;;;;;;;27.03;100.00;101123.78;4900379;29;20370;-76
2021/06/08 08:06:22;;;;;;;14.45;10.27;;;;;;;27.41;100.00;101119.78;4887170;29;20472;-76
2021/06/08 08:09:09;;;;;;;15.60;11.73;;;;;;;27.28;100.00;101128.97;4887256;29;20029;-76
2021/06/08 08:11:55;;;;;;;15.18;10.98;;;;;;;27.20;100.00;101134.09;4900265;29;20025;-75
2021/06/08 08:14:46;;;;;;;14.27;10.20;;;;;;;27.47;100.00;101137.28;4899530;29;20039;-76
2021/06/08 08:17:32;;;;;;;13.07;10.20;;;;;;;27.66;100.00;101136.63;4881192;29;20053;-75
2021/06/08 08:20:34;;;;;;;17.73;11.63;;;;;;;27.47;100.00;101123.81;4880151;29;20470;-75
2021/06/08 08:23:21;;;;;;;12.27;10.70;;;;;;;27.58;100.00;101127.34;4880208;29;20348;-75
2021/06/08 08:26:09;;;;;;;12.45;10.40;;;;;;;28.02;100.00;101122.84;4881674;29;20029;-75
2021/06/08 08:28:59;;;;;;;14.40;11.05;;;;;;;27.65;100.00;101116.94;4881494;29;20028;-73
2021/06/08 08:31:45;;;;;;;11.73;9.75;;;;;;;27.93;100.00;101131.72;4880955;29;20029;-74
2021/06/08 08:34:31;;;;;;;13.05;9.18;;;;;;;28.15;100.00;101123.53;4881889;29;20037;-76
2021/06/08 08:37:17;;;;;;;11.15;10.00;;;;;;;28.36;100.00;101129.84;4881788;29;20025;-75
2021/06/08 08:40:03;;;;;;;13.27;10.68;;;;;;;28.67;100.00;101124.41;4880618;29;20025;-77
2021/06/08 08:42:49;;;;;;;18.58;10.85;;;;;;;28.63;100.00;101125.66;4880768;29;20040;-77
2021/06/08 08:45:35;;;;;;;14.48;11.23;;;;;;;28.38;100.00;101119.78;4880691;29;20047;-76
2021/06/08 08:48:22;;;;;;;15.38;11.45;;;;;;;28.46;100.00;101126.25;4880805;29;20021;-76
2021/06/08 08:51:20;;;;;;;13.60;10.10;;;;;;;28.15;100.00;101123.53;4881566;29;20021;-77
2021/06/08 08:54:06;;;;;;;13.80;10.40;;;;;;;28.36;100.00;101117.19;4880807;29;20387;-75
2021/06/08 08:56:52;;;;;;;11.02;9.88;;;;;;;28.06;100.00;101113.53;4880632;29;20344;-75
2021/06/08 08:59:37;;;;;;;14.38;9.57;;;;;;;28.80;100.00;101116.13;4882830;29;20373;-77
2021/06/08 09:02:23;;;;;;;15.20;11.10;;;;;;;28.49;100.00;101117.88;4881864;29;20060;-76
2021/06/08 09:05:10;;;;;;;13.88;11.52;;;;;;;28.71;100.00;101112.38;4880166;29;20029;-75
2021/06/08 09:07:56;;;;;;;13.70;10.23;;;;;;;29.37;100.00;101114.56;4880249;29;20108;-77
2021/06/08 09:10:42;;;;;;;14.73;11.00;;;;;;;29.74;98.75;101104.88;4880130;29;20029;-76
2021/06/08 09:13:28;;;;;;;13.32;10.88;;;;;;;29.88;95.60;101112.59;4879606;29;20032;-76
2021/06/08 09:16:15;;;;;;;14.15;10.38;;;;;;;29.73;96.39;101105.06;4880133;29;20037;-76
2021/06/08 09:19:06;;;;;;;14.25;10.27;;;;;;;29.69;95.31;101104.47;4879961;29;20053;-76
2021/06/08 09:21:56;;;;;;;14.88;11.18;;;;;;;29.60;92.64;101101.72;4879530;29;20100;-76
2021/06/08 09:24:54;;;;;;;13.20;9.88;;;;;;;29.01;96.88;101104.31;4880344;29;20103;-77
2021/06/08 09:27:40;;;;;;;13.38;9.45;;;;;;;29.40;96.10;101095.41;4881141;29;20138;-75
2021/06/08 09:30:35;;;;;;;14.07;9.50;;;;;;;29.45;94.06;101093.13;4881778;29;20108;-76
2021/06/08 09:33:26;;;;;;;13.07;8.73;;;;;;;29.46;94.81;101097.56;4881616;29;20056;-74
2021/06/08 09:36:25;;;;;;;14.35;9.13;;;;;;;29.23;96.39;101098.75;4881058;29;20033;-75
2021/06/08 09:39:28;;;;;;;11.40;8.23;;;;;;;29.38;90.60;101092.00;4881739;29;20048;-78
2021/06/08 09:42:28;;;;;;;12.07;8.23;;;;;;;28.83;94.51;101089.72;4880862;29;20040;-75
2021/06/08 09:45:57;;;;;;;11.98;8.27;;;;;;;29.12;93.06;101082.66;4883439;29;20025;-77
2021/06/08 09:49:06;;;;;;;11.43;8.40;;;;;;;29.05;87.79;101086.03;4883881;29;20025;-76
2021/06/08 09:55:04;;;;;;;10.40;7.60;;;;;;;28.84;84.83;101079.78;4928161;23;20080;-75
2021/06/08 09:57:50;;;;;;;12.85;7.85;;;;;;;28.96;86.75;101076.88;4823412;29;20492;-75
2021/06/08 10:00:36;;;;;;;9.82;6.63;;;;;;;29.23;81.62;101068.19;4889171;29;20138;-76
2021/06/08 10:03:33;;;;;;;8.07;5.43;;;;;;;28.30;76.60;101076.44;4892565;29;20063;-76
2021/06/08 10:06:38;;;;;;;9.90;5.78;;;;;;;28.91;78.00;101073.72;4886745;29;20100;-77
2021/06/08 10:09:24;;;;;;;14.50;6.70;;;;;;;28.83;84.57;101065.44;4888182;29;20457;-75
2021/06/08 10:12:10;;;;;;;7.47;6.50;;;;;;;28.74;85.22;101068.09;4875548;29;20112;-76
2021/06/08 10:15:10;;;;;;;6.32;5.60;;;;;;;28.55;78.09;101054.50;4889081;29;20398;-76
2021/06/08 10:17:58;;;;;;;5.97;4.75;;;;;;;28.80;70.71;101059.50;4871735;29;20040;-77
2021/06/08 10:20:52;;;;;;;4.72;3.42;;;;;;;28.65;57.35;101053.56;4870582;29;20037;-76
2021/06/08 10:23:38;;;;;;;4.18;3.50;;;;;;;28.54;59.32;101048.25;4882897;29;20029;-77
2021/06/08 10:26:26;;;;;;;7.72;4.10;;;;;;;28.53;64.22;101051.09;4870348;29;20136;-76
2021/06/08 10:29:12;;;;;;;7.00;3.95;;;;;;;28.70;63.69;101045.06;4869743;29;20456;-76
2021/06/08 10:31:58;;;;;;;7.43;3.60;;;;;;;28.85;60.83;101043.75;4870084;29;20064;-75
2021/06/08 10:34:44;;;;;;;10.35;4.10;;;;;;;29.29;60.50;101037.97;4883630;29;20041;-76
2021/06/08 10:37:31;;;;;;;6.15;3.85;;;;;;;29.03;59.65;101036.75;4883309;29;20478;-76
2021/06/08 10:40:21;;;;;;;7.30;4.00;;;;;;;29.10;59.76;101027.09;4885257;29;20431;-76
2021/06/08 10:43:17;;;;;;;6.00;4.07;;;;;;;28.63;62.49;101019.63;4870906;29;20060;-76
2021/06/08 10:46:03;;;;;;;5.80;4.18;;;;;;;28.97;63.57;101010.28;4871200;29;20414;-75
2021/06/08 10:48:50;;;;;;;9.60;5.20;;;;;;;28.99;67.67;101008.28;4883666;29;20112;-75
2021/06/08 10:51:38;;;;;;;6.72;4.65;;;;;;;29.24;67.11;101005.97;4883860;29;20036;-76
2021/06/08 10:54:26;;;;;;;6.05;5.10;;;;;;;28.97;70.16;100991.38;4884214;29;20057;-76
2021/06/08 10:57:17;;;;;;;5.47;4.70;;;;;;;29.68;67.02;100996.53;4869671;29;20033;-76
2021/06/08 11:00:03;;;;;;;7.55;5.13;;;;;;;29.71;65.75;100982.75;4869567;29;20041;-75
2021/06/08 11:02:52;;;;;;;6.40;4.82;;;;;;;30.21;62.41;100977.03;4869956;29;20029;-76
2021/06/08 11:05:48;;;;;;;5.35;4.50;;;;;;;29.70;61.04;100981.91;4868248;29;20479;-76
2021/06/08 11:09:22;;;;;;;5.45;4.45;;;;;;;29.66;60.66;100968.84;4868974;29;20028;-75
2021/06/08 11:12:08;;;;;;;6.38;4.70;;;;;;;29.75;60.74;100968.84;4870026;29;20033;-75
2021/06/08 11:14:55;;;;;;;5.93;4.82;;;;;;;29.82;61.75;100964.53;4882627;29;20388;-75
2021/06/08 11:17:41;;;;;;;6.88;4.90;;;;;;;30.43;63.25;100965.91;4869338;29;20029;-75
2021/06/08 11:20:29;;;;;;;5.82;4.50;;;;;;;30.15;59.96;100950.63;4868848;29;20057;-75
2021/06/08 11:23:44;;;;;;;4.88;4.38;;;;;;;29.95;62.88;100951.63;4882248;29;20040;-75
2021/06/08 11:26:47;;;;;;;6.07;4.88;;;;;;;29.73;66.07;100948.38;4882169;29;20037;-76
2021/06/08 11:29:56;;;;;;;7.43;4.72;;;;;;;30.01;61.74;100950.19;4869047;29;20061;-75
2021/06/08 11:32:43;;;;;;;7.35;4.95;;;;;;;30.49;57.68;100953.63;4882095;29;20036;-75
2021/06/08 11:35:40;;;;;;;8.10;5.30;;;;;;;30.46;64.75;100948.53;4882760;29;20041;-75
2021/06/08 11:38:27;;;;;;;7.03;4.90;;;;;;;30.21;64.41;100946.44;4881429;29;20101;-75
2021/06/08 11:41:14;;;;;;;5.30;4.75;;;;;;;30.35;61.56;100948.69;4868302;29;20044;-75
2021/06/08 11:44:04;;;;;;;4.72;4.22;;;;;;;30.09;61.83;100945.75;4882965;29;20039;-77
2021/06/08 11:47:01;;;;;;;4.95;4.45;;;;;;;30.53;59.69;100941.50;4868585;29;20473;-76
2021/06/08 11:50:12;;;;;;;5.47;4.57;;;;;;;30.05;61.28;100947.03;4871594;29;20060;-77
2021/06/08 11:53:06;;;;;;;6.97;4.53;;;;;;;29.49;65.53;100953.31;4882499;29;20062;-76
2021/06/08 11:56:06;;;;;;;7.93;4.43;;;;;;;29.63;62.48;100951.06;4870604;29;20061;-75
2021/06/08 11:59:05;;;;;;;7.32;4.45;;;;;;;30.12;61.84;100953.56;4883542;29;20041;-77
2021/06/08 12:04:29;;;;;;;7.93;4.45;;;;;;;30.78;58.16;100947.13;5001427;23;20056;-75
2021/06/08 12:07:16;;;;;;;5.75;4.28;;;;;;;30.15;58.03;100931.69;4918782;29;20127;-74
2021/06/08 12:10:02;;;;;;;6.82;4.15;;;;;;;30.79;57.91;100937.16;4919177;29;20461;-75
2021/06/08 12:12:49;;;;;;;4.80;4.40;;;;;;;31.09;55.97;100934.97;4919738;29;20042;-76
2021/06/08 12:15:39;;;;;;;5.55;4.55;;;;;;;31.01;55.91;100929.47;4905601;29;20066;-78
2021/06/08 12:18:35;;;;;;;9.20;4.45;;;;;;;30.49;57.43;100935.53;4918713;29;20106;-76
2021/06/08 12:21:21;;;;;;;6.57;4.10;;;;;;;30.63;56.89;100921.53;4906202;29;20118;-76
2021/06/08 12:24:08;;;;;;;5.78;4.30;;;;;;;30.85;55.71;100925.72;4906617;29;20343;-75
2021/06/08 12:27:04;;;;;;;9.50;4.53;;;;;;;30.53;57.09;100926.13;4906353;29;20103;-74
2021/06/08 12:29:52;;;;;;;4.65;3.80;;;;;;;30.49;55.05;100922.03;4918450;29;20028;-75
2021/06/08 12:32:39;;;;;;;9.45;3.80;;;;;;;30.69;54.63;100915.56;4918547;29;20028;-75
2021/06/08 12:35:42;;;;;;;8.80;3.58;;;;;;;30.60;53.04;100924.53;4905259;29;20074;-75
2021/06/08 12:38:27;;;;;;;5.10;3.90;;;;;;;30.76;53.49;100915.78;4904609;29;20432;-75
2021/06/08 12:41:14;;;;;;;5.45;3.42;;;;;;;31.41;51.89;100911.97;4918557;29;20373;-75
2021/06/08 12:44:00;;;;;;;7.05;3.97;;;;;;;31.07;51.41;100914.47;4918720;29;20123;-75
2021/06/08 12:46:50;;;;;;;5.35;3.65;;;;;;;31.08;51.14;100913.47;4904630;29;20031;-74
2021/06/08 12:49:38;;;;;;;4.72;3.40;;;;;;;31.80;48.33;100913.34;4890120;29;20107;-75
2021/06/08 12:52:24;;;;;;;6.22;3.95;;;;;;;31.04;50.88;100914.78;4918437;29;20038;-75
2021/06/08 12:55:13;;;;;;;6.90;4.15;;;;;;;31.35;49.94;100914.28;4918533;29;20131;-75
2021/06/08 12:58:03;;;;;;;7.25;3.90;;;;;;;30.97;50.68;100910.97;4918603;29;20047;-75
2021/06/08 13:00:51;;;;;;;5.10;4.00;;;;;;;31.30;48.51;100899.53;4904865;29;20071;-75
2021/06/08 13:03:40;;;;;;;3.85;3.45;;;;;;;31.10;49.38;100889.81;4917550;29;20379;-75
2021/06/08 13:06:26;;;;;;;5.13;3.20;;;;;;;30.62;47.32;100892.75;4904643;29;20473;-75
2021/06/08 13:09:19;;;;;;;7.13;3.88;;;;;;;31.68;46.11;100899.19;4904551;29;20107;-76
2021/06/08 13:12:11;;;;;;;6.72;3.60;;;;;;;31.91;45.54;100905.84;4918317;29;20024;-76
2021/06/08 13:15:02;;;;;;;7.00;4.03;;;;;;;31.49;50.78;100901.22;4904469;29;20032;-76
2021/06/08 13:17:47;;;;;;;8.27;4.60;;;;;;;30.51;59.18;100913.75;4918327;29;20028;-75
2021/06/08 13:20:38;;;;;;;9.80;4.45;;;;;;;31.40;60.05;100921.94;4917809;29;20398;-75
2021/06/08 13:23:33;;;;;;;14.35;4.82;;;;;;;30.31;63.80;100921.13;4917524;29;20036;-75
2021/06/08 13:26:20;;;;;;;5.88;4.43;;;;;;;29.76;68.24;100921.91;4904782;29;20126;-75
2021/06/08 13:29:12;;;;;;;21.17;5.93;;;;;;;28.59;98.40;100916.59;4905376;29;20034;-75
2021/06/08 13:31:58;;;;;;;10.75;5.28;;;;;;;26.03;100.00;100929.25;4920896;29;20059;-74
2021/06/08 13:34:44;;;;;;;11.75;6.28;;;;;;;25.57;100.00;100920.34;4908483;29;20465;-76
2021/06/08 13:37:29;;;;;;;10.80;6.38;;;;;;;25.39;100.00;100916.34;4908354;29;20091;-74
2021/06/08 13:40:26;;;;;;;7.88;5.85;;;;;;;25.29;100.00;100917.16;4921947;29;20099;-76
2021/06/08 13:43:13;;;;;;;10.20;6.78;;;;;;;24.95;100.00;100923.28;4921981;29;20027;-76
2021/06/08 13:46:11;;;;;;;13.80;6.25;;;;;;;24.61;100.00;100926.69;4908298;29;20031;-76
2021/06/08 13:49:02;;;;;;;10.35;5.90;;;;;;;24.36;100.00;100930.25;4922100;29;20028;-76
2021/06/08 13:51:52;;;;;;;9.20;5.47;;;;;;;24.17;100.00;100940.53;4908369;29;20068;-75
2021/06/08 13:54:39;;;;;;;9.32;6.35;;;;;;;23.85;100.00;100933.84;4922204;29;20048;-75
2021/06/08 13:57:29;;;;;;;10.77;7.28;;;;;;;24.18;100.00;100936.03;4922244;29;20164;-75
2021/06/08 14:00:23;;;;;;;9.88;6.90;;;;;;;24.16;100.00;100935.28;4907773;29;20513;-75
2021/06/08 14:03:19;;;;;;;10.18;6.22;;;;;;;24.03;100.00;100923.72;4907364;29;20115;-75
2021/06/08 14:06:16;;;;;;;8.50;5.93;;;;;;;24.22;100.00;100916.13;4921691;29;20385;-76
2021/06/08 14:09:07;;;;;;;9.23;6.22;;;;;;;24.36;100.00;100911.50;4921536;29;20036;-75
2021/06/08 14:11:55;;;;;;;8.05;6.30;;;;;;;24.51;100.00;100909.53;4907525;29;20079;-75
2021/06/08 14:14:41;;;;;;;15.48;7.82;;;;;;;24.56;100.00;100908.25;4907300;29;20095;-76
2021/06/08 14:17:27;;;;;;;12.63;7.75;;;;;;;24.29;100.00;100904.84;4906574;29;20103;-76
2021/06/08 14:20:13;;;;;;;13.02;8.07;;;;;;;24.12;100.00;100910.56;4908149;29;20025;-75
2021/06/08 14:22:58;;;;;;;13.07;7.82;;;;;;;24.10;100.00;100909.78;4921405;29;20055;-75
2021/06/08 14:25:45;;;;;;;11.00;7.28;;;;;;;24.20;100.00;100908.19;4920957;29;20070;-75
2021/06/08 14:28:30;;;;;;;12.52;7.97;;;;;;;23.91;100.00;100904.00;4921160;29;20099;-75
2021/06/08 14:31:16;;;;;;;11.75;6.90;;;;;;;24.28;100.00;100908.50;4920217;29;20479;-75
2021/06/08 14:34:03;;;;;;;10.57;7.15;;;;;;;24.30;100.00;100911.09;4906751;29;20054;-75
2021/06/08 14:36:49;;;;;;;10.48;7.95;;;;;;;24.60;100.00;100915.09;4920976;29;20028;-76
2021/06/08 14:39:35;;;;;;;15.77;8.77;;;;;;;24.77;100.00;100922.81;4919617;29;20058;-74
2021/06/08 14:42:21;;;;;;;10.68;6.60;;;;;;;24.88;100.00;100930.94;4919886;29;20028;-76
2021/06/08 14:45:08;;;;;;;8.57;6.85;;;;;;;25.00;100.00;100931.84;4906212;29;20020;-76
2021/06/08 14:47:53;;;;;;;9.60;6.32;;;;;;;25.06;100.00;100937.59;4906489;29;20036;-75
2021/06/08 14:50:39;;;;;;;7.35;6.40;;;;;;;25.29;100.00;100943.97;4919280;29;20035;-75
2021/06/08 14:53:28;;;;;;;9.23;6.10;;;;;;;25.44;100.00;100954.41;4920299;29;20028;-77
2021/06/08 14:56:14;;;;;;;10.95;6.65;;;;;;;25.42;100.00;100968.91;4906523;29;20079;-76
2021/06/08 14:59:00;;;;;;;10.10;6.63;;;;;;;25.37;100.00;100971.09;4920196;29;20038;-76
2021/06/08 15:01:45;;;;;;;8.25;5.32;;;;;;;24.82;100.00;100962.66;4920208;29;20052;-75
2021/06/08 15:04:31;;;;;;;9.25;5.50;;;;;;;24.91;100.00;100951.28;4918724;29;20063;-74
2021/06/08 15:07:17;;;;;;;8.52;5.53;;;;;;;24.70;100.00;100953.69;4920163;29;20032;-75
2021/06/08 15:10:03;;;;;;;7.70;5.72;;;;;;;25.26;100.00;100947.72;4919842;29;20427;-75
2021/06/08 15:12:49;;;;;;;6.45;5.47;;;;;;;25.48;100.00;100958.56;4919708;29;20043;-76
2021/06/08 15:15:36;;;;;;;6.70;4.75;;;;;;;24.84;100.00;100961.59;4918799;29;20028;-76
2021/06/08 15:18:21;;;;;;;5.53;4.93;;;;;;;24.67;100.00;100986.06;4920411;29;20146;-77
2021/06/08 15:21:07;;;;;;;7.03;5.43;;;;;;;24.89;100.00;100980.03;4919861;29;20102;-75
2021/06/08 15:23:53;;;;;;;8.43;6.10;;;;;;;24.43;100.00;100992.28;4919804;29;20380;-75
2021/06/08 15:26:39;;;;;;;8.38;5.97;;;;;;;24.12;100.00;100974.81;4920293;29;20035;-76
2021/06/08 15:29:25;;;;;;;8.38;5.80;;;;;;;24.10;100.00;100983.91;4919761;29;20032;-76
2021/06/08 15:32:11;;;;;;;8.13;5.95;;;;;;;24.23;100.00;100982.94;4919569;29;20039;-76
2021/06/08 15:34:56;;;;;;;9.68;5.78;;;;;;;24.19;100.00;100981.44;4919195;29;20405;-76
2021/06/08 15:37:42;;;;;;;7.18;5.65;;;;;;;24.29;100.00;100974.50;4918508;29;20039;-75
2021/06/08 15:40:30;;;;;;;7.22;6.00;;;;;;;24.53;100.00;100956.69;4920638;29;20401;-75
2021/06/08 15:43:15;;;;;;;9.75;6.20;;;;;;;23.98;100.00;100958.00;4919593;29;20056;-76
2021/06/08 15:46:01;;;;;;;9.18;6.10;;;;;;;23.74;100.00;100955.13;4905802;29;20099;-76
2021/06/08 15:48:47;;;;;;;13.57;6.70;;;;;;;24.05;100.00;100954.78;4920020;29;20024;-74
2021/06/08 15:51:37;;;;;;;9.40;6.60;;;;;;;23.81;100.00;100950.19;4919426;29;20113;-75
2021/06/08 15:54:26;;;;;;;9.55;6.15;;;;;;;24.10;100.00;100943.75;4905758;29;20020;-74
2021/06/08 15:57:12;;;;;;;9.13;7.00;;;;;;;24.63;100.00;100951.56;4919167;29;20032;-76
2021/06/08 15:59:57;;;;;;;9.35;6.13;;;;;;;24.46;100.00;100957.22;4919043;29;20134;-76
2021/06/08 16:02:46;;;;;;;8.75;6.00;;;;;;;24.26;100.00;100963.97;4919699;29;20070;-75
2021/06/08 16:05:32;;;;;;;8.95;6.22;;;;;;;24.33;100.00;100973.31;4905961;29;20434;-76
2021/06/08 16:08:18;;;;;;;9.77;6.13;;;;;;;23.58;100.00;100958.94;4919038;29;20028;-75
2021/06/08 16:11:04;;;;;;;7.32;5.40;;;;;;;23.71;100.00;100951.81;4918425;29;20402;-75
2021/06/08 16:13:49;;;;;;;6.80;5.35;;;;;;;23.60;100.00;100941.81;4919050;29;20071;-76
2021/06/08 16:16:35;;;;;;;8.85;5.47;;;;;;;23.84;100.00;100950.88;4919491;29;20044;-75